Time;durP1;ratioP1;P1;durP2;ratioP2;P2;SDS_P1;SDS_P2;PMS_P1;PMS_P2;Temp;Humidity;BMP_temperature;BMP_pressure;BME280_temperature;BME280_humidity;BME280_pressure;Samples;Min_cycle;Max_cycle;Signal;HPM_P1;HPM_P2
2023/10/27 00:00:07;;;;;;;5.33;2.63;;;;;;;12.13;79.47;94115.88;4986604;28;20252;-72
2023/10/27 00:02:38;;;;;;;3.40;2.80;;;;;;;12.13;80.12;94112.41;4986673;28;20219;-72
2023/10/27 00:05:04;;;;;;;5.10;2.50;;;;;;;12.16;78.91;94115.59;4986417;28;20845;-72
2023/10/27 00:07:29;;;;;;;3.93;2.47;;;;;;;12.08;79.17;94124.16;4986768;28;20408;-71
2023/10/27 00:09:54;;;;;;;2.80;2.60;;;;;;;12.06;78.93;94118.19;4986705;28;20543;-70
2023/10/27 00:12:20;;;;;;;6.80;3.27;;;;;;;12.10;79.52;94105.63;4986863;28;20284;-71
2023/10/27 00:14:45;;;;;;;6.73;3.50;;;;;;;12.01;79.65;94116.94;4986750;28;20172;-72
2023/10/27 00:17:11;;;;;;;3.63;3.00;;;;;;;12.05;79.53;94113.09;4986836;28;20188;-72
2023/10/27 00:19:36;;;;;;;9.63;3.50;;;;;;;12.04;79.60;94112.22;4987937;28;20180;-71
2023/10/27 00:22:01;;;;;;;4.83;3.10;;;;;;;12.06;78.57;94106.84;4990300;28;20587;-73
2023/10/27 00:24:27;;;;;;;5.07;2.60;;;;;;;12.04;78.54;94104.34;4990511;28;20536;-72
2023/10/27 00:26:52;;;;;;;3.73;2.80;;;;;;;12.11;78.39;94112.53;4990666;28;20239;-71
2023/10/27 00:29:18;;;;;;;3.53;2.77;;;;;;;12.03;78.96;94115.84;4990582;28;20169;-73
2023/10/27 00:31:43;;;;;;;4.93;3.33;;;;;;;12.05;78.35;94121.78;4990279;28;20204;-73
2023/10/27 00:34:08;;;;;;;3.53;2.80;;;;;;;11.99;78.31;94119.69;4989992;28;20169;-71
2023/10/27 00:36:34;;;;;;;3.30;2.80;;;;;;;12.07;78.42;94117.25;4990366;28;20196;-72
2023/10/27 00:38:59;;;;;;;4.57;2.80;;;;;;;12.02;78.81;94115.97;4990160;28;20267;-73
2023/10/27 00:41:25;;;;;;;4.53;2.73;;;;;;;11.92;78.91;94113.28;4990604;28;20249;-72
2023/10/27 00:43:50;;;;;;;7.30;2.93;;;;;;;11.98;78.97;94120.66;4990115;28;20176;-72
2023/10/27 00:46:16;;;;;;;4.50;2.67;;;;;;;11.97;78.78;94115.53;4990106;28;20205;-71
2023/10/27 00:48:42;;;;;;;4.83;3.30;;;;;;;11.96;79.18;94119.13;4989912;28;20338;-71
2023/10/27 00:51:09;;;;;;;6.47;3.10;;;;;;;11.96;78.68;94117.34;4989862;28;20633;-71
2023/10/27 00:53:35;;;;;;;5.10;2.87;;;;;;;11.92;79.04;94117.72;4989725;28;20215;-71
2023/10/27 00:56:01;;;;;;;3.70;3.40;;;;;;;11.92;78.40;94118.53;4989735;28;20458;-71
2023/10/27 00:58:27;;;;;;;5.00;3.13;;;;;;;11.95;79.31;94118.31;4989802;28;20173;-70
2023/10/27 01:00:56;;;;;;;3.60;2.80;;;;;;;11.96;78.45;94119.13;4989961;28;20911;-74
2023/10/27 01:03:22;;;;;;;4.03;3.30;;;;;;;11.93;78.88;94112.34;4989992;28;20512;-72
2023/10/27 01:05:48;;;;;;;3.63;2.60;;;;;;;11.94;78.88;94116.63;4989723;28;20507;-72
2023/10/27 01:08:13;;;;;;;3.10;2.57;;;;;;;11.92;78.89;94109.84;4989680;28;20507;-73
2023/10/27 01:10:39;;;;;;;3.23;2.93;;;;;;;11.92;78.96;94109.84;4989777;28;20644;-72
2023/10/27 01:13:04;;;;;;;6.10;3.43;;;;;;;11.71;80.44;94104.59;4989475;28;20183;-71
2023/10/27 01:15:30;;;;;;;4.10;2.37;;;;;;;11.77;80.16;94104.06;4989497;28;20189;-71
2023/10/27 01:17:56;;;;;;;3.93;2.77;;;;;;;11.80;79.57;94095.91;4989693;28;20176;-72
2023/10/27 01:20:22;;;;;;;4.73;3.20;;;;;;;11.83;79.59;94109.66;4989492;28;20165;-72
2023/10/27 01:22:48;;;;;;;7.93;3.10;;;;;;;11.90;79.78;94096.81;4989526;28;20415;-71
2023/10/27 01:25:17;;;;;;;4.90;2.70;;;;;;;11.89;80.19;94102.22;4989175;28;20227;-70
2023/10/27 01:27:43;;;;;;;5.20;3.20;;;;;;;11.98;78.92;94104.91;4989320;28;20420;-71
2023/10/27 01:30:10;;;;;;;5.67;3.40;;;;;;;11.90;79.60;94096.81;4989239;28;20452;-72
2023/10/27 01:32:43;;;;;;;6.70;3.23;;;;;;;11.88;79.52;94098.75;4989529;28;20780;-72
2023/10/27 01:35:08;;;;;;;4.83;2.83;;;;;;;11.88;79.70;94105.81;4988830;28;21123;-71
2023/10/27 01:37:34;;;;;;;4.33;3.20;;;;;;;11.81;80.57;94108.94;4989375;28;20404;-72
2023/10/27 01:39:59;;;;;;;4.80;3.07;;;;;;;11.83;80.37;94104.38;4989264;28;20247;-73
2023/10/27 01:42:25;;;;;;;4.93;3.20;;;;;;;11.86;79.78;94105.91;4989269;28;20176;-71
2023/10/27 01:44:51;;;;;;;4.33;2.87;;;;;;;11.83;79.98;94106.16;4988870;28;20177;-72
2023/10/27 01:47:17;;;;;;;3.93;3.50;;;;;;;11.79;79.51;94105.59;4989107;28;20200;-72
2023/10/27 01:49:42;;;;;;;4.90;3.33;;;;;;;11.86;79.57;94098.03;4988755;28;20419;-72
2023/10/27 01:52:08;;;;;;;3.73;2.87;;;;;;;11.84;79.35;94098.16;4988757;28;20165;-70
2023/10/27 01:54:33;;;;;;;5.07;3.10;;;;;;;11.83;79.41;94106.16;4988848;28;20227;-71
2023/10/27 01:56:58;;;;;;;5.90;3.73;;;;;;;11.66;80.19;94111.06;4989297;28;20197;-74
2023/10/27 01:59:24;;;;;;;4.53;3.50;;;;;;;11.67;80.57;94101.41;4988759;28;20176;-72
2023/10/27 02:01:49;;;;;;;5.27;3.20;;;;;;;11.68;81.21;94100.44;4988836;28;20168;-72
2023/10/27 02:04:14;;;;;;;9.00;3.27;;;;;;;11.75;80.39;94101.56;4988222;28;20168;-71
2023/10/27 02:06:40;;;;;;;6.47;3.97;;;;;;;11.75;80.30;94098.94;4988644;28;20191;-73
2023/10/27 02:09:05;;;;;;;10.40;4.00;;;;;;;11.70;80.85;94100.31;4988594;28;20295;-71
2023/10/27 02:11:30;;;;;;;4.83;2.90;;;;;;;11.79;80.84;94102.16;4988304;28;20208;-72
2023/10/27 02:13:56;;;;;;;6.17;3.77;;;;;;;11.77;80.14;94096.19;4988519;28;20183;-73
2023/10/27 02:16:21;;;;;;;5.73;3.60;;;;;;;11.77;80.03;94094.38;4988436;28;20197;-72
2023/10/27 02:18:46;;;;;;;6.07;3.20;;;;;;;11.79;80.74;94094.28;4988443;28;20277;-71
2023/10/27 02:21:12;;;;;;;5.67;4.30;;;;;;;11.70;80.46;94095.06;4988493;28;20173;-72
2023/10/27 02:23:37;;;;;;;8.30;4.10;;;;;;;11.69;80.38;94091.56;4988411;28;20192;-71
2023/10/27 02:26:03;;;;;;;6.90;4.03;;;;;;;11.67;80.86;94093.53;4987787;28;20192;-71
2023/10/27 02:28:28;;;;;;;5.47;3.40;;;;;;;11.68;79.98;94091.72;4988049;28;20274;-72
2023/10/27 02:30:54;;;;;;;4.37;3.80;;;;;;;11.67;80.69;94085.63;4988150;28;20200;-72
2023/10/27 02:33:19;;;;;;;5.40;3.47;;;;;;;11.64;79.61;94086.72;4987657;28;20175;-72
2023/10/27 02:35:44;;;;;;;6.77;4.73;;;;;;;11.60;80.82;94087.94;4987756;28;20188;-72
2023/10/27 02:38:10;;;;;;;5.00;4.50;;;;;;;11.61;80.61;94086.97;4988024;28;20169;-71
2023/10/27 02:40:35;;;;;;;5.10;4.37;;;;;;;11.67;80.06;94080.38;4988076;28;20626;-72
2023/10/27 02:43:00;;;;;;;7.67;4.33;;;;;;;11.56;80.57;94078.66;4987143;28;20173;-73
2023/10/27 02:45:26;;;;;;;4.73;3.73;;;;;;;11.60;80.23;94076.63;4987810;28;20209;-73
2023/10/27 02:47:51;;;;;;;5.80;4.20;;;;;;;11.45;80.97;94082.19;4987995;28;20256;-73
2023/10/27 02:50:17;;;;;;;6.27;4.07;;;;;;;11.44;80.67;94077.06;4987607;28;20196;-74
2023/10/27 02:52:42;;;;;;;6.93;4.07;;;;;;;11.49;80.59;94074.88;4987801;28;20179;-72
2023/10/27 02:55:08;;;;;;;3.80;3.33;;;;;;;11.53;80.44;94075.47;4987439;28;20220;-73
2023/10/27 02:57:34;;;;;;;4.43;3.43;;;;;;;11.48;80.87;94078.50;4987999;28;20169;-73
2023/10/27 02:59:59;;;;;;;3.93;2.87;;;;;;;11.43;80.70;94076.25;4988301;28;20411;-71
2023/10/27 03:02:25;;;;;;;3.67;2.67;;;;;;;11.43;80.06;94076.25;4989422;28;20577;-72
2023/10/27 03:04:51;;;;;;;5.60;3.90;;;;;;;11.46;80.23;94064.66;4987115;28;20184;-72
2023/10/27 03:07:17;;;;;;;4.87;2.77;;;;;;;11.48;80.42;94062.72;4987352;28;20721;-72
2023/10/27 03:09:42;;;;;;;7.23;3.17;;;;;;;11.44;79.49;94062.16;4987748;28;20403;-71
2023/10/27 03:12:08;;;;;;;5.87;2.27;;;;;;;11.44;79.40;94058.69;4987748;28;20180;-71
2023/10/27 03:14:33;;;;;;;6.60;2.60;;;;;;;11.37;79.59;94057.56;4987282;28;20184;-72
2023/10/27 03:16:59;;;;;;;8.03;3.40;;;;;;;11.36;79.45;94061.97;4987234;28;20193;-72
2023/10/27 03:19:24;;;;;;;3.27;2.63;;;;;;;11.40;80.42;94067.78;4987072;28;20188;-72
2023/10/27 03:21:49;;;;;;;4.13;3.20;;;;;;;11.32;80.08;94057.94;4987321;28;20172;-72
2023/10/27 03:24:15;;;;;;;3.47;2.97;;;;;;;11.23;81.21;94053.47;4987027;28;20613;-71
2023/10/27 03:26:41;;;;;;;9.40;6.50;;;;;;;11.36;80.69;94055.88;4986855;28;20283;-71
2023/10/27 03:29:07;;;;;;;5.10;4.60;;;;;;;11.19;81.16;94055.50;4986935;28;20187;-72
2023/10/27 03:31:33;;;;;;;6.17;3.33;;;;;;;11.33;80.63;94062.22;4986822;28;20448;-71
2023/10/27 03:34:00;;;;;;;5.60;4.00;;;;;;;11.39;80.91;94059.09;4986884;28;20412;-72
2023/10/27 03:36:25;;;;;;;3.50;3.00;;;;;;;11.40;80.56;94065.16;4987065;28;20424;-71
2023/10/27 03:38:51;;;;;;;7.30;3.53;;;;;;;11.40;80.40;94070.41;4987408;28;20746;-71
2023/10/27 03:41:16;;;;;;;4.13;3.73;;;;;;;11.28;80.14;94063.56;4987034;28;20175;-73
2023/10/27 03:43:41;;;;;;;3.87;2.47;;;;;;;11.28;79.73;94056.53;4986415;28;20894;-71
2023/10/27 03:46:07;;;;;;;3.80;2.40;;;;;;;11.28;79.31;94050.44;4986584;28;20243;-71
2023/10/27 03:48:34;;;;;;;4.83;2.70;;;;;;;11.36;78.93;94048.84;4986758;28;20260;-71
2023/10/27 03:51:02;;;;;;;3.50;2.70;;;;;;;11.33;78.58;94049.09;4986588;28;20200;-71
2023/10/27 03:53:28;;;;;;;5.30;2.93;;;;;;;11.30;78.27;94049.34;4986582;28;20416;-74
2023/10/27 03:55:53;;;;;;;3.70;3.03;;;;;;;11.27;78.24;94040.88;4986644;28;20446;-71
2023/10/27 03:58:18;;;;;;;5.40;2.90;;;;;;;11.34;78.29;94029.75;4987095;28;20267;-72
2023/10/27 04:00:44;;;;;;;2.83;2.13;;;;;;;11.19;78.76;94029.25;4987315;28;20169;-73
2023/10/27 04:03:10;;;;;;;3.60;2.00;;;;;;;11.21;78.76;94035.19;4986926;28;20188;-70
2023/10/27 04:05:36;;;;;;;2.60;2.40;;;;;;;11.20;78.35;94033.53;4986399;28;20188;-70
2023/10/27 04:08:04;;;;;;;4.53;2.10;;;;;;;11.26;79.28;94044.50;4988951;28;20945;-72
2023/10/27 04:10:31;;;;;;;5.80;2.07;;;;;;;11.29;78.75;94045.06;4990541;28;20211;-70
2023/10/27 04:12:57;;;;;;;6.50;2.17;;;;;;;11.34;79.37;94045.50;4989523;28;20523;-73
2023/10/27 04:15:22;;;;;;;4.10;2.47;;;;;;;11.27;79.06;94046.13;4985963;28;20864;-73
2023/10/27 04:17:48;;;;;;;3.40;2.37;;;;;;;11.18;79.57;94053.00;4985663;28;20165;-71
2023/10/27 04:20:13;;;;;;;6.33;2.83;;;;;;;11.26;79.63;94055.00;4986700;28;20173;-72
2023/10/27 04:22:38;;;;;;;2.60;2.00;;;;;;;11.27;80.27;94057.50;4986510;28;20655;-72
2023/10/27 04:25:05;;;;;;;4.63;2.53;;;;;;;11.30;79.47;94051.16;4986574;28;20251;-70
2023/10/27 04:27:30;;;;;;;5.03;2.60;;;;;;;11.16;80.00;94055.75;4986979;28;20718;-72
2023/10/27 04:29:57;;;;;;;4.10;2.33;;;;;;;11.08;80.62;94049.47;4987766;28;20412;-71
2023/10/27 04:32:24;;;;;;;5.53;2.60;;;;;;;11.22;79.86;94059.69;4983523;28;20171;-72
2023/10/27 04:34:50;;;;;;;8.30;3.13;;;;;;;11.25;78.87;94059.41;4983299;28;20448;-73
2023/10/27 04:37:15;;;;;;;9.00;3.20;;;;;;;11.19;79.63;94057.28;4986413;28;20439;-72
2023/10/27 04:39:40;;;;;;;4.23;3.20;;;;;;;11.24;79.31;94057.72;4986808;28;20176;-72
2023/10/27 04:42:07;;;;;;;4.87;2.80;;;;;;;11.22;79.77;94054.44;4984271;28;20176;-72
2023/10/27 04:44:33;;;;;;;5.50;2.60;;;;;;;11.20;79.17;94054.56;4984707;28;20169;-73
2023/10/27 04:46:58;;;;;;;4.17;2.40;;;;;;;11.22;80.03;94068.38;4985109;28;20435;-72
2023/10/27 04:49:26;;;;;;;4.23;2.50;;;;;;;11.30;78.97;94066.91;4985076;28;20408;-72
2023/10/27 04:51:51;;;;;;;5.07;3.20;;;;;;;11.32;78.99;94067.63;4985346;28;20201;-71
2023/10/27 04:54:16;;;;;;;2.73;2.30;;;;;;;11.26;79.44;94062.88;4985849;28;20424;-72
2023/10/27 04:56:43;;;;;;;7.40;2.83;;;;;;;11.20;79.56;94064.22;4984877;28;20279;-72
2023/10/27 04:59:09;;;;;;;4.77;2.90;;;;;;;11.22;79.61;94065.75;4984091;28;20165;-72
2023/10/27 05:01:35;;;;;;;6.50;2.93;;;;;;;11.23;79.52;94066.59;4984565;28;20416;-72
2023/10/27 05:04:01;;;;;;;5.43;3.13;;;;;;;11.18;79.92;94069.59;4983926;28;20407;-72
2023/10/27 05:06:26;;;;;;;4.70;3.10;;;;;;;11.25;79.30;94066.47;4986705;28;20201;-72
2023/10/27 05:08:52;;;;;;;6.20;3.93;;;;;;;11.26;79.42;94070.75;4986865;28;20193;-68
2023/10/27 05:11:18;;;;;;;5.83;3.90;;;;;;;11.19;79.40;94066.00;4981492;28;20271;-69
2023/10/27 05:13:43;;;;;;;7.07;4.30;;;;;;;11.14;79.74;94068.19;4985626;28;20350;-69
2023/10/27 05:16:09;;;;;;;5.23;3.50;;;;;;;11.21;79.72;94071.13;4988261;28;20192;-69
2023/10/27 05:18:34;;;;;;;4.43;3.30;;;;;;;11.16;79.19;94062.81;4987395;28;20710;-69
2023/10/27 05:21:00;;;;;;;6.30;3.40;;;;;;;11.05;79.86;94068.13;4978893;28;20260;-69
2023/10/27 05:23:25;;;;;;;2.37;2.17;;;;;;;11.13;79.07;94070.94;4984550;28;20219;-70
2023/10/27 05:25:52;;;;;;;4.83;2.77;;;;;;;11.10;79.74;94052.81;4984876;28;20277;-70
2023/10/27 05:28:18;;;;;;;5.20;2.40;;;;;;;11.10;79.92;94052.81;4986002;28;20196;-69
2023/10/27 05:30:46;;;;;;;6.20;2.90;;;;;;;11.12;79.98;94058.75;4986168;28;20472;-70
2023/10/27 05:33:12;;;;;;;3.43;2.77;;;;;;;11.03;79.97;94055.09;4983693;28;20177;-69
2023/10/27 05:35:37;;;;;;;13.90;4.33;;;;;;;11.11;79.45;94057.94;4976314;28;20814;-69
2023/10/27 05:38:03;;;;;;;4.40;2.60;;;;;;;11.16;79.45;94052.31;4981342;28;20183;-69
2023/10/27 05:40:31;;;;;;;3.70;2.00;;;;;;;11.26;79.85;94044.50;4984826;28;20184;-69
2023/10/27 05:42:57;;;;;;;6.50;2.80;;;;;;;11.18;79.48;94053.00;4983904;28;20184;-70
2023/10/27 05:45:23;;;;;;;6.77;2.90;;;;;;;11.23;79.34;94050.84;4981539;28;20602;-69
2023/10/27 05:47:48;;;;;;;5.37;3.10;;;;;;;11.16;79.98;94060.19;4986526;28;20308;-69
2023/10/27 05:50:14;;;;;;;5.53;2.37;;;;;;;11.19;79.86;94065.16;4976102;28;20212;-71
2023/10/27 05:52:39;;;;;;;12.53;3.07;;;;;;;11.23;79.67;94062.16;4980662;28;20619;-70
2023/10/27 05:55:05;;;;;;;3.03;2.37;;;;;;;10.94;81.46;94050.66;4986347;28;20201;-68
2023/10/27 05:57:30;;;;;;;7.57;2.80;;;;;;;11.04;80.99;94055.97;4985882;28;20220;-69
2023/10/27 05:59:56;;;;;;;8.83;3.43;;;;;;;11.12;80.70;94067.47;4976037;28;20252;-70
2023/10/27 06:02:21;;;;;;;7.17;3.07;;;;;;;11.09;81.00;94067.72;4976043;28;20174;-68
2023/10/27 06:04:46;;;;;;;5.00;3.00;;;;;;;11.15;80.78;94074.25;4983030;28;20609;-68
2023/10/27 06:07:15;;;;;;;15.53;3.57;;;;;;;11.17;80.88;94077.59;4980651;28;20259;-68
2023/10/27 06:09:41;;;;;;;12.43;2.73;;;;;;;11.09;80.65;94075.59;4979501;28;20200;-68
2023/10/27 06:12:07;;;;;;;6.77;2.73;;;;;;;11.12;80.85;94079.75;4981756;28;20463;-68
2023/10/27 06:14:32;;;;;;;6.63;2.03;;;;;;;11.12;80.79;94074.50;4980027;28;20185;-68
2023/10/27 06:16:58;;;;;;;6.50;3.00;;;;;;;11.12;80.89;94080.59;4982431;28;21135;-68
2023/10/27 06:19:25;;;;;;;6.33;2.60;;;;;;;11.17;80.42;94075.81;4979314;28;20181;-69
2023/10/27 06:21:50;;;;;;;6.03;2.30;;;;;;;11.25;80.23;94079.59;4981671;28;20251;-70
2023/10/27 06:24:15;;;;;;;3.80;2.40;;;;;;;11.18;80.10;94085.34;4981401;28;20444;-73
2023/10/27 06:26:41;;;;;;;7.83;2.73;;;;;;;11.21;80.77;94092.13;4984898;28;20211;-71
2023/10/27 06:29:07;;;;;;;14.93;3.23;;;;;;;11.16;80.14;94092.50;4983961;28;20661;-73
2023/10/27 06:31:32;;;;;;;7.10;3.03;;;;;;;11.16;80.75;94095.13;4979239;28;20257;-71
2023/10/27 06:33:58;;;;;;;5.63;3.10;;;;;;;11.08;81.04;94100.19;4977244;28;20241;-72
2023/10/27 06:36:25;;;;;;;12.33;3.77;;;;;;;11.21;81.10;94095.56;4973994;28;20205;-71
2023/10/27 06:38:51;;;;;;;18.20;4.40;;;;;;;11.30;81.28;94094.00;4977443;28;20248;-70
2023/10/27 06:41:16;;;;;;;14.83;4.73;;;;;;;11.28;80.38;94095.06;4984822;28;20448;-71
2023/10/27 06:43:42;;;;;;;14.60;4.20;;;;;;;11.25;80.62;94097.97;4977221;28;20181;-72
2023/10/27 06:46:08;;;;;;;12.57;3.83;;;;;;;11.27;81.04;94103.91;4974899;28;20190;-74
2023/10/27 06:48:34;;;;;;;9.50;4.43;;;;;;;11.32;81.01;94110.44;4977321;28;20438;-70
2023/10/27 06:50:59;;;;;;;6.07;3.73;;;;;;;11.34;80.60;94121.66;4958639;28;20197;-72
2023/10/27 06:53:24;;;;;;;5.23;4.03;;;;;;;11.28;81.23;94131.84;4979145;28;20264;-71
2023/10/27 06:55:50;;;;;;;6.23;4.77;;;;;;;11.33;80.69;94124.41;4984107;28;20247;-73
2023/10/27 06:58:15;;;;;;;5.40;3.93;;;;;;;11.29;81.42;94144.00;4985166;28;20192;-72
2023/10/27 07:00:41;;;;;;;3.50;3.20;;;;;;;11.27;81.64;94146.75;4976842;28;20192;-73
2023/10/27 07:03:06;;;;;;;5.17;4.10;;;;;;;11.36;81.58;94153.03;4974482;28;20181;-71
2023/10/27 07:05:31;;;;;;;5.00;4.33;;;;;;;11.34;81.79;94147.91;4978041;28;20208;-72
2023/10/27 07:07:57;;;;;;;4.30;3.40;;;;;;;11.36;81.71;94155.66;4982100;28;20830;-73
2023/10/27 07:10:22;;;;;;;6.90;4.10;;;;;;;11.44;81.19;94161.94;4984095;28;20598;-72
2023/10/27 07:12:48;;;;;;;5.70;3.23;;;;;;;11.41;80.88;94169.25;4985670;28;20207;-71
2023/10/27 07:15:14;;;;;;;6.47;3.37;;;;;;;11.56;80.74;94167.97;4983187;28;20236;-71
2023/10/27 07:17:40;;;;;;;6.80;3.43;;;;;;;11.59;80.96;94169.50;4980873;28;20254;-72
2023/10/27 07:20:06;;;;;;;6.97;3.53;;;;;;;11.62;80.58;94161.34;4976886;28;20428;-71
2023/10/27 07:22:32;;;;;;;5.13;4.40;;;;;;;11.78;80.02;94174.03;4959996;28;20444;-71
2023/10/27 07:24:57;;;;;;;9.97;4.30;;;;;;;11.74;79.85;94175.25;4979442;28;20522;-70
2023/10/27 07:27:22;;;;;;;9.97;4.13;;;;;;;11.86;79.46;94185.59;4983886;28;20220;-72
2023/10/27 07:29:48;;;;;;;12.40;4.60;;;;;;;11.83;79.81;94188.47;4971796;28;20175;-73
2023/10/27 07:32:13;;;;;;;6.47;4.30;;;;;;;11.87;79.59;94191.69;4977941;28;20184;-72
2023/10/27 07:34:39;;;;;;;8.70;4.00;;;;;;;11.99;79.01;94198.53;4973008;28;20341;-72
2023/10/27 07:37:06;;;;;;;6.87;3.90;;;;;;;12.07;78.38;94201.38;4973948;28;20276;-72
2023/10/27 07:39:32;;;;;;;9.83;3.83;;;;;;;12.17;78.35;94206.69;4977758;28;20176;-68
2023/10/27 07:41:57;;;;;;;15.10;4.73;;;;;;;12.39;78.38;94207.47;4985561;28;20419;-69
2023/10/27 07:44:23;;;;;;;57.40;7.77;;;;;;;12.48;77.11;94219.81;4984462;28;20188;-68
2023/10/27 07:46:48;;;;;;;48.37;7.23;;;;;;;12.44;76.43;94221.88;4978843;28;20614;-69
2023/10/27 07:49:14;;;;;;;71.70;10.70;;;;;;;12.58;76.39;94225.13;4983095;28;20190;-68
2023/10/27 07:51:39;;;;;;;62.87;6.77;;;;;;;12.57;76.66;94224.28;4973388;28;20216;-68
2023/10/27 07:54:05;;;;;;;16.37;3.90;;;;;;;12.62;76.58;94227.34;4983442;28;20266;-68
2023/10/27 07:56:32;;;;;;;15.10;3.70;;;;;;;12.60;75.96;94231.09;4982256;28;20201;-68
2023/10/27 07:58:58;;;;;;;97.17;11.67;;;;;;;12.60;75.80;94238.97;4978695;28;20218;-67
2023/10/27 08:01:24;;;;;;;49.90;5.63;;;;;;;12.58;75.60;94239.09;4984958;28;20526;-68
2023/10/27 08:03:50;;;;;;;37.73;5.67;;;;;;;12.68;75.68;94244.41;4982066;28;20192;-66
2023/10/27 08:06:16;;;;;;;26.37;3.40;;;;;;;12.58;76.22;94239.09;4984074;28;20196;-68
2023/10/27 08:08:41;;;;;;;33.90;5.43;;;;;;;12.66;76.23;94247.19;4977875;28;20432;-68
2023/10/27 08:11:07;;;;;;;6.60;1.80;;;;;;;12.63;75.75;94251.84;4974608;28;20459;-68
2023/10/27 08:13:33;;;;;;;6.83;2.60;;;;;;;14.29;82.20;94240.50;4978327;28;20173;-68
2023/10/27 08:15:59;;;;;;;10.63;2.63;;;;;;;14.67;75.69;94251.94;4964019;28;20200;-67
2023/10/27 08:18:24;;;;;;;3.70;1.20;;;;;;;14.17;68.71;94260.09;4983577;28;20177;-68
2023/10/27 08:20:52;;;;;;;2.47;1.73;;;;;;;13.27;70.37;94261.19;4981026;28;20280;-68
2023/10/27 08:23:17;;;;;;;3.63;0.80;;;;;;;13.05;70.79;94270.16;4978699;28;20180;-68
2023/10/27 08:25:42;;;;;;;1.30;0.80;;;;;;;12.88;71.67;94277.72;4985164;28;21012;-68
2023/10/27 08:28:09;;;;;;;2.03;1.10;;;;;;;12.88;71.06;94276.91;4985670;28;20248;-68
2023/10/27 08:30:34;;;;;;;3.33;1.40;;;;;;;12.77;71.30;94285.72;4985791;28;20205;-67
2023/10/27 08:32:59;;;;;;;2.37;1.10;;;;;;;12.72;72.15;94282.66;4986099;28;20793;-69
2023/10/27 08:35:25;;;;;;;4.30;1.13;;;;;;;12.64;72.68;94293.00;4980574;28;20306;-68
2023/10/27 08:37:50;;;;;;;3.53;1.30;;;;;;;12.67;72.30;94290.09;4981739;28;20184;-69
2023/10/27 08:40:17;;;;;;;1.30;0.93;;;;;;;12.61;73.36;94301.16;4979179;28;20272;-68
2023/10/27 08:42:44;;;;;;;2.80;1.30;;;;;;;12.77;72.87;94292.78;4983932;28;20188;-68
2023/10/27 08:45:10;;;;;;;2.00;1.50;;;;;;;12.68;72.50;94294.38;4983149;28;20859;-68
2023/10/27 08:47:36;;;;;;;2.70;1.10;;;;;;;12.79;72.55;94307.47;4985548;28;20432;-69
2023/10/27 08:50:03;;;;;;;1.93;0.90;;;;;;;12.70;72.78;94303.81;4982583;28;20185;-69
2023/10/27 08:52:29;;;;;;;2.93;1.17;;;;;;;12.61;73.53;94306.41;4986152;28;20188;-68
2023/10/27 08:54:54;;;;;;;3.57;1.10;;;;;;;12.63;74.32;94296.59;4985242;28;20802;-67
2023/10/27 08:57:20;;;;;;;4.70;1.20;;;;;;;12.63;73.28;94294.78;4976910;28;20255;-69
2023/10/27 08:59:46;;;;;;;3.67;1.43;;;;;;;12.49;74.57;94287.25;4981756;28;20185;-69
2023/10/27 09:02:12;;;;;;;2.63;1.03;;;;;;;12.67;74.04;94290.94;4982602;28;20653;-69
2023/10/27 09:04:43;;;;;;;3.00;1.40;;;;;;;12.84;73.23;94288.66;4981971;28;20514;-70
2023/10/27 09:07:08;;;;;;;3.60;1.30;;;;;;;12.80;72.84;94292.50;4981243;28;20264;-70
2023/10/27 09:09:34;;;;;;;10.07;1.70;;;;;;;12.91;73.27;94287.97;4987362;28;20943;-70
2023/10/27 09:12:00;;;;;;;3.60;1.43;;;;;;;12.84;73.76;94288.66;4981168;28;20196;-69
2023/10/27 09:14:30;;;;;;;2.57;1.60;;;;;;;12.78;74.22;94299.69;4980088;28;21363;-70
2023/10/27 09:17:08;;;;;;;1.87;1.00;;;;;;;12.79;72.86;94293.47;4984027;28;20292;-69
2023/10/27 09:19:34;;;;;;;1.70;0.93;;;;;;;12.89;73.56;94297.81;4982018;28;20455;-70
2023/10/27 09:22:00;;;;;;;2.50;1.00;;;;;;;12.93;73.73;94312.38;4981009;28;20470;-70
2023/10/27 09:24:27;;;;;;;5.03;1.47;;;;;;;12.85;74.40;94309.59;4979641;28;20196;-70
2023/10/27 09:26:54;;;;;;;8.57;1.27;;;;;;;12.93;74.28;94311.53;4982519;28;20197;-71
2023/10/27 09:29:20;;;;;;;1.40;1.27;;;;;;;12.95;74.03;94308.78;4985338;28;20881;-69
2023/10/27 09:31:46;;;;;;;3.60;1.20;;;;;;;13.22;73.20;94305.53;4981862;28;20468;-71
2023/10/27 09:34:19;;;;;;;3.00;1.10;;;;;;;13.31;71.64;94302.94;4983709;28;20231;-69
2023/10/27 09:36:46;;;;;;;2.50;1.00;;;;;;;13.27;72.29;94311.22;4979713;28;20460;-69
2023/10/27 09:39:24;;;;;;;1.50;1.00;;;;;;;13.30;71.38;94303.09;4977507;28;20458;-69
2023/10/27 09:42:04;;;;;;;2.83;1.10;;;;;;;13.25;70.34;94311.38;4976737;28;20462;-70
2023/10/27 09:44:54;;;;;;;3.50;1.10;;;;;;;13.36;69.62;94302.53;4981951;28;20436;-70
2023/10/27 09:47:36;;;;;;;6.70;1.60;;;;;;;13.49;69.07;94312.84;4980260;28;20602;-70
2023/10/27 09:50:07;;;;;;;3.17;1.40;;;;;;;14.15;67.31;94312.19;4984438;28;20439;-70
2023/10/27 09:52:39;;;;;;;2.00;1.17;;;;;;;14.67;65.74;94312.66;4986156;28;20950;-69
2023/10/27 09:55:05;;;;;;;2.00;1.30;;;;;;;14.94;64.46;94309.22;4980962;28;20442;-69
2023/10/27 09:57:32;;;;;;;3.33;1.40;;;;;;;15.16;63.40;94308.00;4985653;28;20501;-69
2023/10/27 10:00:00;;;;;;;2.03;1.33;;;;;;;15.28;62.87;94307.81;4985064;28;20992;-69
2023/10/27 10:02:28;;;;;;;4.60;1.23;;;;;;;15.53;61.71;94290.44;4983826;28;20486;-68
2023/10/27 10:05:00;;;;;;;2.30;1.10;;;;;;;15.53;59.77;94298.38;4986795;28;20962;-68
2023/10/27 10:07:30;;;;;;;3.87;1.30;;;;;;;15.33;60.76;94308.19;4989334;28;21308;-69
2023/10/27 10:09:56;;;;;;;1.37;0.97;;;;;;;15.40;60.39;94302.19;4985548;28;20455;-69
2023/10/27 10:12:21;;;;;;;3.10;1.17;;;;;;;15.70;59.71;94302.84;4981327;28;20538;-69
2023/10/27 10:14:50;;;;;;;2.00;0.97;;;;;;;15.90;59.23;94308.84;4976335;28;20479;-69
2023/10/27 10:17:37;;;;;;;2.40;0.87;;;;;;;16.16;56.34;94308.06;4983880;28;20598;-68
2023/10/27 10:20:03;;;;;;;4.73;2.60;;;;;;;15.90;56.06;94321.22;4979933;28;20436;-68
2023/10/27 10:22:38;;;;;;;1.40;1.00;;;;;;;15.79;56.47;94322.28;4981132;28;22223;-71
2023/10/27 10:25:15;;;;;;;1.67;1.00;;;;;;;16.06;55.63;94335.47;4978325;28;20931;-68
2023/10/27 10:28:07;;;;;;;2.53;1.03;;;;;;;15.98;55.11;94337.19;4981263;28;20436;-67
2023/10/27 10:30:42;;;;;;;2.33;1.13;;;;;;;15.60;56.45;94339.09;4960032;28;20902;-68
2023/10/27 10:33:16;;;;;;;3.13;1.20;;;;;;;15.31;57.17;94345.38;4979436;28;20839;-69
2023/10/27 10:35:46;;;;;;;2.00;1.10;;;;;;;15.36;56.32;94358.97;4987279;28;20470;-70
2023/10/27 10:38:21;;;;;;;4.17;1.27;;;;;;;15.21;57.18;94360.41;4986490;28;20546;-70
2023/10/27 10:40:58;;;;;;;1.70;0.80;;;;;;;15.02;57.41;94354.25;4982373;28;20436;-69
2023/10/27 10:43:34;;;;;;;2.83;1.27;;;;;;;14.94;57.07;94355.94;4981995;28;20814;-68
2023/10/27 10:46:01;;;;;;;2.83;1.37;;;;;;;14.96;57.94;94352.19;4989596;28;20906;-71
2023/10/27 10:48:28;;;;;;;3.63;1.67;;;;;;;15.04;57.23;94349.63;4979906;28;20428;-69
2023/10/27 10:51:04;;;;;;;4.00;1.80;;;;;;;15.10;57.82;94353.53;4977286;28;21102;-70
2023/10/27 10:53:30;;;;;;;5.10;1.20;;;;;;;15.53;56.21;94353.88;4984387;28;20435;-69
2023/10/27 10:56:00;;;;;;;2.37;1.30;;;;;;;16.01;56.04;94348.28;4984837;28;20455;-67
2023/10/27 10:58:36;;;;;;;15.40;2.10;;;;;;;16.08;54.34;94343.22;4983526;28;20830;-69
2023/10/27 11:01:03;;;;;;;4.00;1.60;;;;;;;16.30;53.82;94336.66;4979713;28;20942;-67
2023/10/27 11:03:33;;;;;;;5.13;1.60;;;;;;;16.20;54.43;94343.84;4981837;28;20432;-67
2023/10/27 11:06:01;;;;;;;6.37;2.20;;;;;;;15.86;54.19;94347.97;4980874;28;20484;-68
2023/10/27 11:08:31;;;;;;;4.40;1.30;;;;;;;15.80;53.30;94363.63;4985195;28;20440;-68
2023/10/27 11:11:02;;;;;;;10.83;2.00;;;;;;;15.78;53.29;94355.00;4979366;28;20471;-68
2023/10/27 11:13:28;;;;;;;6.30;1.47;;;;;;;15.79;52.96;94352.22;4983086;28;20436;-68
2023/10/27 11:15:53;;;;;;;4.97;2.00;;;;;;;15.65;54.32;94360.63;4978151;28;20456;-68
2023/10/27 11:18:19;;;;;;;4.00;1.40;;;;;;;15.67;53.14;94366.59;4982471;28;20432;-69
2023/10/27 11:20:45;;;;;;;3.47;1.50;;;;;;;15.58;53.10;94356.91;4980774;28;20204;-68
2023/10/27 11:23:15;;;;;;;3.90;1.10;;;;;;;15.59;53.17;94370.00;4983878;28;20546;-69
2023/10/27 11:25:42;;;;;;;3.73;1.40;;;;;;;15.77;52.27;94379.78;4983714;28;20201;-68
2023/10/27 11:28:27;;;;;;;3.70;1.20;;;;;;;15.42;52.48;94373.41;4984162;28;20520;-68